createdAt,value
2018-02-11T00:01:26.130Z,38.5
2018-02-11T00:11:26.734Z,38.8
2018-02-11T00:21:27.087Z,39.4
2018-02-11T00:31:26.643Z,40.1
2018-02-11T00:41:27.851Z,39.0
2018-02-11T00:51:33.015Z,38.0
2018-02-11T01:01:31.973Z,40.5
2018-02-11T01:11:28.296Z,40.0
2018-02-11T01:21:31.729Z,38.9
2018-02-11T01:31:31.733Z,39.8
2018-02-11T01:41:26.392Z,41.2
2018-02-11T01:51:25.836Z,38.1
2018-02-11T02:01:26.959Z,42.7
2018-02-11T02:11:27.833Z,38.3
2018-02-11T02:21:26.789Z,42.1
2018-02-11T02:31:27.724Z,42.1
2018-02-11T02:41:26.177Z,43.5
2018-02-11T02:51:25.685Z,45.6
2018-02-11T03:01:27.817Z,44.8
2018-02-11T03:11:26.885Z,45.6
2018-02-11T03:21:26.606Z,40.9
2018-02-11T03:31:26.037Z,43.0
2018-02-11T03:41:26.950Z,42.5
2018-02-11T03:51:26.866Z,41.9
2018-02-11T04:01:26.777Z,42.1
2018-02-11T04:11:26.600Z,38.8
2018-02-11T04:21:27.311Z,41.4
2018-02-11T04:31:26.117Z,39.0
2018-02-11T04:41:26.601Z,41.9
2018-02-11T04:51:26.020Z,42.1
2018-02-11T05:01:26.592Z,40.7
2018-02-11T05:11:26.167Z,43.6
2018-02-11T05:21:26.177Z,44.0
2018-02-11T05:31:25.632Z,45.2
2018-02-11T05:41:26.230Z,49.0
2018-02-11T05:51:26.568Z,46.5
2018-02-11T06:01:26.940Z,42.3
2018-02-11T06:11:26.323Z,41.7
2018-02-11T06:21:26.099Z,43.1
2018-02-11T06:31:27.145Z,44.1
2018-02-11T06:41:25.738Z,42.5
2018-02-11T06:51:26.387Z,42.9
2018-02-11T07:01:26.173Z,44.9
2018-02-11T07:11:26.576Z,44.1
2018-02-11T07:21:26.910Z,44.0
2018-02-11T07:31:26.518Z,44.5
2018-02-11T07:41:26.353Z,42.6
2018-02-11T07:51:25.992Z,44.2
2018-02-11T08:01:28.184Z,44.3
2018-02-11T08:11:26.259Z,41.3
2018-02-11T08:21:28.262Z,41.3
2018-02-11T08:31:25.748Z,40.2
2018-02-11T08:41:26.501Z,40.1
2018-02-11T08:51:27.000Z,41.0
2018-02-11T09:01:27.638Z,41.6
2018-02-11T09:11:27.890Z,41.3
2018-02-11T09:21:27.607Z,38.5
2018-02-11T09:31:26.713Z,36.2
2018-02-11T09:41:27.232Z,38.9
2018-02-11T09:51:28.641Z,34.5
2018-02-11T10:01:26.782Z,31.6
2018-02-11T10:11:27.411Z,27.4
2018-02-11T10:21:26.098Z,27.1
2018-02-11T10:31:25.901Z,20.7
2018-02-11T10:41:27.459Z,18.9
2018-02-11T10:51:27.206Z,16.7
2018-02-11T11:01:27.880Z,16.1
2018-02-11T11:11:28.106Z,15.3
2018-02-11T11:21:25.891Z,15.2
2018-02-11T11:31:26.506Z,14.8
2018-02-11T11:41:26.348Z,15.0
2018-02-11T11:51:26.628Z,14.3
2018-02-11T12:01:26.228Z,14.2
2018-02-11T12:11:26.349Z,15.7
2018-02-11T12:21:26.071Z,13.3
2018-02-11T12:31:27.317Z,15.7
2018-02-11T12:41:25.784Z,14.7
2018-02-11T12:51:26.358Z,14.4
2018-02-11T13:01:27.149Z,14.1
2018-02-11T13:11:26.729Z,11.0
2018-02-11T13:21:26.851Z,12.2
2018-02-11T13:31:26.418Z,13.2
2018-02-11T13:41:26.649Z,12.8
2018-02-11T13:51:26.870Z,11.5
2018-02-11T14:01:28.232Z,12.7
2018-02-11T14:11:25.777Z,13.2
2018-02-11T14:21:27.073Z,12.1
2018-02-11T14:31:27.508Z,14.4
2018-02-11T14:41:26.604Z,15.4
2018-02-11T14:51:26.754Z,15.1
2018-02-11T15:01:27.258Z,14.4
2018-02-11T15:11:26.266Z,15.9
2018-02-11T15:21:26.614Z,15.0
2018-02-11T15:31:26.797Z,17.7
2018-02-11T15:41:26.735Z,18.1
2018-02-11T15:51:27.415Z,19.9
2018-02-11T16:01:26.612Z,18.2
2018-02-11T16:11:26.393Z,17.5
2018-02-11T16:21:26.695Z,18.7
2018-02-11T16:31:26.504Z,17.5
2018-02-11T16:41:27.886Z,16.2
2018-02-11T16:51:28.506Z,19.2
2018-02-11T17:01:26.333Z,18.2
2018-02-11T17:11:28.463Z,19.1
2018-02-11T17:21:27.910Z,19.7
2018-02-11T17:31:26.779Z,20.3
2018-02-11T17:41:26.819Z,23.3
2018-02-11T17:51:26.734Z,21.3
2018-02-11T18:01:26.553Z,22.5
2018-02-11T18:11:26.715Z,24.1
2018-02-11T18:21:28.454Z,26.1
2018-02-11T18:31:26.454Z,25.0
2018-02-11T18:41:28.440Z,25.3
2018-02-11T18:51:28.083Z,26.8
2018-02-11T19:01:25.932Z,26.8
2018-02-11T19:11:27.085Z,27.4
2018-02-11T19:21:26.079Z,30.4
2018-02-11T19:31:27.289Z,31.4
2018-02-11T19:41:26.042Z,31.2
2018-02-11T19:51:26.150Z,29.7
2018-02-11T20:01:26.002Z,32.2
2018-02-11T20:11:26.997Z,29.7
2018-02-11T20:21:26.006Z,34.6
2018-02-11T20:31:29.574Z,35.4
2018-02-11T20:41:26.911Z,37.0
2018-02-11T20:51:27.665Z,39.2
2018-02-11T21:01:26.969Z,41.2
2018-02-11T21:11:27.835Z,41.8
2018-02-11T21:21:27.110Z,42.2
2018-02-11T21:31:28.092Z,44.2
2018-02-11T21:41:26.727Z,44.4
2018-02-11T21:51:26.858Z,46.9
2018-02-11T22:01:26.401Z,44.4
2018-02-11T22:11:26.169Z,37.9
2018-02-11T22:21:25.924Z,40.1
2018-02-11T22:31:26.734Z,45.9
2018-02-11T22:41:27.146Z,43.9
2018-02-11T22:51:27.256Z,43.3
2018-02-11T23:01:26.877Z,53.4
2018-02-11T23:11:27.201Z,52.5
2018-02-11T23:21:27.664Z,49.8
2018-02-11T23:31:26.067Z,54.4
2018-02-11T23:41:26.976Z,54.3
2018-02-11T23:51:26.407Z,54.0
